Jackson, WI

4:29 PM CDT on May 29, 2015 (GMT -0500)
Dodge County | | Change Station
CLOSE
Current Station
Airport
Location: Juneau,
Elevation: 935 ft
Nearby Weather Stations

Elev 935 ft 43.43 °N, 88.70 °W | Updated 14 minutes ago

Overcast
Overcast
77 °F
Feels Like 77 °F
N
13
Wind Variable Wind from SSW

Today
High -- | Low -- °F
--% Chance of Precip.
Yesterday
High -- | Low -- °F
Precip. -- in
5:16 AM 8:23 PM
Waxing Gibbous, 86% visible
Pressure 29.89 in
Visibility 10.0 miles
Clouds Scattered Clouds 2800 ft
Scattered Clouds 4100 ft
Scattered Clouds 4700 ft
Dew Point 66 °F
Humidity 68%
Rainfall 0.20 in
Snow Depth Not available.
UV 5 out of 12
Pollen 4.60 out of 12
Air Quality Not available.
Flu Activity Sporadic
METAR KUNU 292115Z AUTO 20011KT 10SM SCT028 SCT041 SCT047 25/19 A2989 RMK AO2 T02520190

More Conditions Fewer Conditions

Pressure 29.89 in
Visibility 10.0 miles
Clouds Scattered Clouds 2800 ft
Scattered Clouds 4100 ft
Scattered Clouds 4700 ft
Dew Point 66 °F
Humidity 68%
Rainfall 0.20 in
Snow Depth Not available.
UV 5 out of 12
Pollen 4.60 out of 12
Air Quality Not available.
Flu Activity Sporadic
METAR KUNU 292115Z AUTO 20011KT 10SM SCT028 SCT041 SCT047 25/19 A2989 RMK AO2 T02520190

More Conditions Fewer Conditions

10-Day Weather Forecast

Almanac

Astronomy

May. 29, 2015 Rise Set
Actual Time
Civil Twilight
Nautical Twilight
Astronomical Twilight
Moon
Length of Visible Light
Length of Day
Tomorrow will be .
, % of the Moon is Illuminated

Today's Extremes

State Highs State Lows

Community

WunderPhotos

Upload Photos

1,825,359 photos uploaded!

WunderBlogs® & News

Nearby

Air Quality

  Air Quality AQ Index Pollutant
Not available.

Snow Depth

Station Depth Elevation

Earthquake Activity

City Distance Mag. Time & Date
Minimum magnitude displayed is 2.5.

Coastal Water Temperatures

Place Temperature

Stations

Nearby Weather Stations

Station Location Temp. Windchill Dew Point Humidity Wind Precip. Elev Updated Type